Time;durP1;ratioP1;P1;durP2;ratioP2;P2;SDS_P1;SDS_P2;PMS_P1;PMS_P2;Temp;Humidity;BMP_temperature;BMP_pressure;BME280_temperature;BME280_humidity;BME280_pressure;Samples;Min_cycle;Max_cycle;Signal;HPM_P1;HPM_P2
2023/01/25 00:02:57;;;;;;;13.85;8.25;;;0.00;99.90;;;;;;15195825;23;20169;-37
2023/01/25 00:08:59;;;;;;;16.70;9.57;;;0.00;99.90;;;;;;15196999;23;20022;-37
2023/01/25 00:15:01;;;;;;;14.43;9.52;;;-0.10;99.90;;;;;;15198552;23;20029;-37
2023/01/25 00:21:20;;;;;;;14.00;8.32;;;0.00;99.90;;;;;;15201017;23;20403;-37
2023/01/25 00:27:22;;;;;;;14.00;9.45;;;0.10;99.90;;;;;;15197194;23;20049;-37
2023/01/25 00:33:36;;;;;;;14.35;8.98;;;0.00;99.90;;;;;;15197432;23;20337;-37
2023/01/25 00:39:38;;;;;;;14.48;9.43;;;0.00;99.90;;;;;;15202255;23;20439;-37
2023/01/25 00:45:40;;;;;;;13.82;8.43;;;-0.10;99.90;;;;;;15174181;23;20022;-36
2023/01/25 00:51:42;;;;;;;14.93;9.20;;;-0.10;99.90;;;;;;15200576;23;20026;-36
2023/01/25 00:57:44;;;;;;;14.63;9.35;;;-0.10;99.90;;;;;;15206552;23;20026;-36
2023/01/25 01:03:46;;;;;;;13.82;8.70;;;-0.10;99.90;;;;;;15201929;23;20026;-36
2023/01/25 01:09:47;;;;;;;13.32;8.40;;;-0.20;99.90;;;;;;15199385;23;20367;-36
2023/01/25 01:15:49;;;;;;;13.45;8.85;;;-0.20;99.90;;;;;;15199770;23;20032;-37
2023/01/25 01:21:51;;;;;;;15.50;10.00;;;-0.20;99.90;;;;;;15202837;23;20029;-36
2023/01/25 01:27:53;;;;;;;13.68;8.65;;;-0.20;99.90;;;;;;15204658;23;20018;-36
2023/01/25 01:33:57;;;;;;;14.82;9.07;;;-0.10;99.90;;;;;;15199095;23;20653;-36
2023/01/25 01:39:59;;;;;;;15.43;9.43;;;-0.20;99.90;;;;;;15204091;23;20490;-36
2023/01/25 01:46:02;;;;;;;16.05;9.57;;;-0.20;99.90;;;;;;15204578;23;20026;-37
2023/01/25 01:52:11;;;;;;;16.60;9.93;;;-0.10;99.90;;;;;;15203128;23;20375;-36
2023/01/25 01:58:13;;;;;;;15.55;8.90;;;-0.10;99.90;;;;;;15204651;23;20108;-35
2023/01/25 02:04:18;;;;;;;16.15;8.90;;;-0.10;99.90;;;;;;15198635;23;20089;-37
2023/01/25 02:10:21;;;;;;;14.07;8.25;;;-0.10;99.90;;;;;;15201284;23;20045;-37
2023/01/25 02:16:26;;;;;;;15.82;9.57;;;-0.10;99.90;;;;;;15204355;23;20018;-37
2023/01/25 02:23:05;;;;;;;14.85;9.32;;;-0.10;99.90;;;;;;15200498;23;20049;-36
2023/01/25 02:29:09;;;;;;;16.52;9.90;;;-0.10;99.90;;;;;;15168044;23;20093;-36
2023/01/25 02:35:22;;;;;;;16.75;8.50;;;0.00;99.90;;;;;;15202362;23;20025;-36
2023/01/25 02:41:36;;;;;;;13.85;8.40;;;-0.10;99.90;;;;;;15202568;23;20399;-37
2023/01/25 02:47:38;;;;;;;15.52;9.23;;;-0.10;99.90;;;;;;15178566;23;20030;-37
2023/01/25 02:53:40;;;;;;;16.08;9.07;;;-0.10;99.90;;;;;;15201445;23;20352;-37
2023/01/25 02:59:42;;;;;;;16.27;9.43;;;-0.10;99.90;;;;;;15168181;23;20067;-37
2023/01/25 03:05:44;;;;;;;19.02;10.43;;;-0.20;99.90;;;;;;15198076;23;20101;-36
2023/01/25 03:11:46;;;;;;;19.27;10.63;;;-0.20;99.90;;;;;;15200966;23;20026;-37
2023/01/25 03:17:47;;;;;;;19.15;10.45;;;-0.10;99.90;;;;;;15202971;23;20054;-37
2023/01/25 03:24:00;;;;;;;16.98;9.82;;;0.00;99.90;;;;;;15201537;23;20105;-37
2023/01/25 03:30:02;;;;;;;19.60;10.10;;;-0.10;99.90;;;;;;15199021;23;20081;-37
2023/01/25 03:36:05;;;;;;;17.92;9.98;;;-0.20;99.90;;;;;;15199746;23;20097;-36
2023/01/25 03:42:07;;;;;;;22.75;11.57;;;-0.20;99.90;;;;;;15203929;23;20018;-36
2023/01/25 03:48:09;;;;;;;26.33;12.50;;;-0.10;99.90;;;;;;15194988;23;20028;-36
2023/01/25 03:54:11;;;;;;;24.85;12.55;;;-0.10;99.90;;;;;;15200838;23;20033;-37
2023/01/25 04:00:13;;;;;;;24.83;11.18;;;-0.10;99.90;;;;;;15197465;23;20026;-36
2023/01/25 04:06:16;;;;;;;24.42;12.43;;;0.00;99.90;;;;;;15200587;23;20026;-37
2023/01/25 04:12:17;;;;;;;23.35;12.63;;;0.00;99.90;;;;;;15196424;23;20036;-37
2023/01/25 04:18:20;;;;;;;23.33;12.43;;;0.00;99.90;;;;;;15174372;23;20029;-37
2023/01/25 04:24:22;;;;;;;29.58;12.32;;;0.00;99.90;;;;;;15196446;23;20042;-37
2023/01/25 04:30:24;;;;;;;25.50;12.77;;;0.00;99.90;;;;;;15196456;23;20526;-36
2023/01/25 04:36:26;;;;;;;30.75;13.77;;;0.00;99.90;;;;;;15201657;23;20101;-37
2023/01/25 04:42:28;;;;;;;28.58;14.00;;;0.10;99.90;;;;;;15200500;23;20096;-37
2023/01/25 04:48:31;;;;;;;34.90;14.05;;;0.00;99.90;;;;;;15193149;23;20073;-37
2023/01/25 04:54:33;;;;;;;26.42;13.38;;;0.00;99.90;;;;;;15197134;23;20441;-37
2023/01/25 05:00:35;;;;;;;30.25;13.70;;;0.00;99.90;;;;;;15197462;23;20073;-37
2023/01/25 05:06:37;;;;;;;31.80;13.70;;;0.00;99.90;;;;;;15200632;23;20140;-37
2023/01/25 05:12:39;;;;;;;35.63;15.02;;;0.00;99.90;;;;;;15199392;23;20026;-37
2023/01/25 05:18:41;;;;;;;33.13;14.85;;;0.00;99.90;;;;;;15176329;23;20077;-36
2023/01/25 05:24:49;;;;;;;37.58;16.02;;;0.00;99.90;;;;;;15197460;23;20479;-37
2023/01/25 05:30:51;;;;;;;34.33;15.40;;;0.00;99.90;;;;;;15199990;23;20076;-36
2023/01/25 05:36:53;;;;;;;38.42;15.63;;;0.00;99.90;;;;;;15199578;23;20121;-37
2023/01/25 05:42:57;;;;;;;34.97;15.98;;;0.10;99.90;;;;;;15203799;23;20408;-36
2023/01/25 05:48:59;;;;;;;38.90;15.82;;;0.10;99.90;;;;;;15205402;23;20070;-36
2023/01/25 05:55:01;;;;;;;37.78;15.38;;;0.10;99.90;;;;;;15199531;23;20569;-37
2023/01/25 06:01:06;;;;;;;40.78;16.10;;;0.10;99.90;;;;;;15175482;23;20022;-37
2023/01/25 06:07:08;;;;;;;40.83;15.45;;;0.10;99.90;;;;;;15202079;23;20021;-37
2023/01/25 06:13:10;;;;;;;36.08;15.35;;;0.00;99.90;;;;;;15205730;23;20097;-36
2023/01/25 06:19:13;;;;;;;34.97;14.43;;;0.10;99.90;;;;;;15204849;23;20384;-37
2023/01/25 06:25:15;;;;;;;31.23;14.32;;;0.10;99.90;;;;;;15202765;23;20029;-37
2023/01/25 06:31:17;;;;;;;35.97;13.60;;;0.00;99.90;;;;;;15202533;23;20026;-37
2023/01/25 06:37:21;;;;;;;31.05;13.25;;;0.00;99.90;;;;;;15201798;23;20029;-37
2023/01/25 06:43:23;;;;;;;27.08;11.50;;;0.00;99.90;;;;;;15177339;23;20088;-37
2023/01/25 06:49:25;;;;;;;25.23;11.20;;;0.00;99.90;;;;;;15202505;23;20022;-36
2023/01/25 06:55:27;;;;;;;27.60;11.45;;;0.00;99.90;;;;;;15199356;23;20032;-37
2023/01/25 07:01:29;;;;;;;22.95;10.02;;;0.00;99.90;;;;;;15199824;23;20026;-36
2023/01/25 07:07:31;;;;;;;23.13;10.40;;;-0.10;99.90;;;;;;15194936;23;20399;-38
2023/01/25 07:13:33;;;;;;;20.83;9.40;;;-0.10;99.90;;;;;;15198299;23;20087;-36
2023/01/25 07:19:35;;;;;;;25.63;10.05;;;-0.20;99.90;;;;;;15202348;23;20026;-37
2023/01/25 07:25:43;;;;;;;34.65;10.95;;;-0.20;99.90;;;;;;15197849;23;20404;-36
2023/01/25 07:31:45;;;;;;;22.20;9.27;;;-0.20;99.90;;;;;;15193183;23;20104;-37
2023/01/25 07:37:47;;;;;;;26.75;10.65;;;-0.10;99.90;;;;;;15197268;23;20026;-36
2023/01/25 07:43:48;;;;;;;25.92;10.65;;;-0.20;99.90;;;;;;15195673;23;20026;-36
2023/01/25 07:49:50;;;;;;;27.30;11.27;;;-0.20;99.90;;;;;;15191167;23;20355;-36
2023/01/25 07:55:52;;;;;;;22.80;10.27;;;-0.20;99.90;;;;;;15196707;23;20122;-36
2023/01/25 08:01:54;;;;;;;19.02;8.60;;;-0.20;99.90;;;;;;15196223;23;20022;-36
2023/01/25 08:07:56;;;;;;;23.85;10.20;;;-0.20;99.90;;;;;;15197922;23;20479;-36
2023/01/25 08:14:00;;;;;;;20.27;9.88;;;-0.20;99.90;;;;;;15199487;23;20033;-37
2023/01/25 08:20:03;;;;;;;22.33;10.05;;;-0.20;99.90;;;;;;15202332;23;20022;-37
2023/01/25 08:26:07;;;;;;;21.67;9.85;;;-0.20;99.90;;;;;;15201566;23;20109;-36
2023/01/25 08:32:09;;;;;;;25.13;10.63;;;-0.20;99.90;;;;;;15198347;23;20092;-36
2023/01/25 08:38:11;;;;;;;23.25;10.07;;;-0.20;99.90;;;;;;15198358;23;20029;-36
2023/01/25 08:44:13;;;;;;;26.13;10.93;;;-0.10;99.90;;;;;;15193848;23;20098;-37
2023/01/25 08:50:16;;;;;;;22.08;10.88;;;-0.10;99.90;;;;;;15188652;23;20018;-37
2023/01/25 08:56:18;;;;;;;32.75;12.77;;;-0.10;99.90;;;;;;15199521;23;20114;-36
2023/01/25 09:02:20;;;;;;;30.02;12.05;;;-0.10;99.90;;;;;;15200571;23;20033;-37
2023/01/25 09:08:22;;;;;;;31.55;12.95;;;0.00;99.90;;;;;;15200171;23;20474;-37
2023/01/25 09:14:24;;;;;;;33.35;11.88;;;0.10;99.90;;;;;;15174501;23;20471;-37
2023/01/25 09:20:26;;;;;;;32.58;12.23;;;0.10;99.90;;;;;;15204850;23;20049;-37
2023/01/25 09:26:29;;;;;;;34.90;12.88;;;0.00;99.90;;;;;;15206867;23;20455;-36
2023/01/25 09:32:32;;;;;;;24.73;10.70;;;0.00;99.90;;;;;;15202206;23;20145;-36
2023/01/25 09:38:35;;;;;;;25.42;12.07;;;0.20;99.90;;;;;;15203678;23;20411;-37
2023/01/25 09:44:40;;;;;;;26.85;11.48;;;0.20;99.90;;;;;;15179395;23;20788;-37
2023/01/25 09:51:01;;;;;;;;;;;0.20;99.90;;;;;;15196509;23;20022;-37
2023/01/25 09:57:03;;;;;;;30.85;11.55;;;0.20;99.90;;;;;;15174244;23;19988;-36
2023/01/25 10:03:24;;;;;;;26.27;11.77;;;0.00;99.90;;;;;;15201145;23;20022;-36
2023/01/25 10:09:32;;;;;;;28.80;11.68;;;0.00;99.90;;;;;;15204088;23;20025;-36
2023/01/25 10:15:42;;;;;;;34.15;11.80;;;0.00;99.90;;;;;;15201131;23;20057;-36
2023/01/25 10:21:48;;;;;;;31.30;13.25;;;-0.10;99.90;;;;;;15177448;23;20045;-36
2023/01/25 10:28:18;;;;;;;28.10;12.52;;;0.10;99.90;;;;;;15200216;23;20347;-35
2023/01/25 10:34:31;;;;;;;29.20;12.20;;;0.20;99.90;;;;;;15198693;23;20030;-36
2023/01/25 10:40:43;;;;;;;28.92;11.88;;;0.10;99.90;;;;;;15202441;23;20462;-35
2023/01/25 10:46:50;;;;;;;30.13;12.35;;;0.10;99.90;;;;;;15197165;23;20347;-36
2023/01/25 10:52:57;;;;;;;28.90;11.20;;;0.10;99.90;;;;;;15198694;23;20026;-35
2023/01/25 10:59:27;;;;;;;29.73;13.15;;;0.10;99.90;;;;;;15178516;23;20510;-35
2023/01/25 11:05:40;;;;;;;32.63;13.10;;;0.10;99.90;;;;;;15122343;23;20464;-36
2023/01/25 11:11:42;;;;;;;31.02;12.70;;;0.20;99.90;;;;;;15127184;23;20030;-37
2023/01/25 11:17:44;;;;;;;35.30;13.50;;;0.20;99.90;;;;;;15128799;23;20074;-36
2023/01/25 11:24:08;;;;;;;30.30;12.85;;;0.10;99.90;;;;;;15125443;23;20483;-36
2023/01/25 11:30:20;;;;;;;28.45;11.68;;;0.30;99.90;;;;;;15106001;23;20105;-36
2023/01/25 11:36:31;;;;;;;31.30;12.45;;;0.30;99.90;;;;;;15123336;23;20045;-36
2023/01/25 11:42:41;;;;;;;24.92;10.63;;;0.20;99.90;;;;;;15126632;23;20048;-35
2023/01/25 11:49:24;;;;;;;25.48;11.02;;;0.10;99.90;;;;;;15122251;23;20022;-36
2023/01/25 11:55:47;;;;;;;30.90;12.95;;;0.10;99.90;;;;;;15120043;23;20471;-36
2023/01/25 12:02:07;;;;;;;33.47;13.10;;;0.10;99.90;;;;;;15137694;23;20026;-36
2023/01/25 12:08:38;;;;;;;30.35;13.32;;;0.10;99.90;;;;;;15194611;23;20022;-36
2023/01/25 12:15:10;;;;;;;29.55;11.63;;;0.10;99.90;;;;;;15198621;23;20112;-36
2023/01/25 12:21:31;;;;;;;36.72;13.07;;;0.10;99.90;;;;;;15198140;23;20061;-36
2023/01/25 12:27:56;;;;;;;39.17;13.98;;;0.10;99.90;;;;;;15199756;23;20506;-37
2023/01/25 12:33:59;;;;;;;;;;;0.20;99.90;;;;;;15194774;23;20030;-36
2023/01/25 12:40:21;;;;;;;36.20;14.07;;;0.10;99.90;;;;;;15194018;23;19917;-37
2023/01/25 12:46:29;;;;;;;36.35;14.23;;;0.10;99.90;;;;;;15124170;23;20062;-38
2023/01/25 12:52:39;;;;;;;40.17;14.82;;;0.00;99.90;;;;;;15165344;23;20145;-36
2023/01/25 12:58:55;;;;;;;41.85;15.32;;;0.20;99.90;;;;;;15174010;23;20036;-36
2023/01/25 13:05:28;;;;;;;42.97;14.70;;;-0.10;99.90;;;;;;15173901;23;20536;-36
2023/01/25 13:11:42;;;;;;;44.67;15.77;;;-0.10;99.90;;;;;;15167773;23;20605;-36
2023/01/25 13:17:44;;;;;;;40.85;14.02;;;-0.20;99.90;;;;;;15169765;23;20049;-37
2023/01/25 13:24:11;;;;;;;37.60;12.98;;;-0.20;99.90;;;;;;15170239;23;20025;-37
2023/01/25 13:30:33;;;;;;;47.80;13.60;;;-0.10;99.90;;;;;;15165349;23;20676;-36
2023/01/25 13:36:44;;;;;;;38.08;13.80;;;-0.20;99.90;;;;;;15173787;23;20022;-37
2023/01/25 13:43:02;;;;;;;58.33;14.13;;;-0.10;99.90;;;;;;15200933;23;20018;-37
2023/01/25 13:49:13;;;;;;;34.83;12.68;;;-0.40;99.90;;;;;;15197869;23;20026;-36
2023/01/25 13:55:18;;;;;;;41.25;14.35;;;-0.50;99.90;;;;;;15197280;23;20073;-36
2023/01/25 14:01:22;;;;;;;36.03;13.70;;;-0.40;99.90;;;;;;15196037;23;20033;-37
2023/01/25 14:07:32;;;;;;;30.70;11.48;;;-0.40;99.90;;;;;;15199056;23;20180;-36
2023/01/25 14:13:34;;;;;;;41.72;13.48;;;-0.50;99.90;;;;;;15198188;23;20026;-37
2023/01/25 14:19:39;;;;;;;30.60;13.02;;;-0.60;99.90;;;;;;15202103;23;20022;-36
2023/01/25 14:25:41;;;;;;;30.83;12.38;;;-0.70;99.90;;;;;;15190334;23;20112;-36
2023/01/25 14:31:45;;;;;;;28.50;11.40;;;-0.70;99.90;;;;;;15198696;23;20030;-37
2023/01/25 14:37:46;;;;;;;34.53;12.07;;;-0.60;99.90;;;;;;15197014;23;20034;-37
2023/01/25 14:43:52;;;;;;;35.40;12.63;;;-0.70;99.90;;;;;;15179260;23;20030;-36
2023/01/25 14:49:54;;;;;;;41.30;13.65;;;-0.60;99.90;;;;;;15179770;23;20090;-37
2023/01/25 14:55:57;;;;;;;35.90;14.05;;;-0.50;99.90;;;;;;15139902;23;20025;-37
2023/01/25 15:02:22;;;;;;;34.25;12.45;;;-0.50;99.90;;;;;;15172173;23;20026;-36
2023/01/25 15:08:34;;;;;;;30.45;12.73;;;-0.60;99.90;;;;;;15155794;23;20026;-36
2023/01/25 15:14:50;;;;;;;28.15;12.50;;;-0.60;99.90;;;;;;15168330;23;20025;-36
2023/01/25 15:20:52;;;;;;;38.10;13.27;;;-0.60;99.90;;;;;;15175213;23;20026;-36
2023/01/25 15:26:55;;;;;;;29.98;13.25;;;-0.60;99.90;;;;;;15173834;23;20474;-37
2023/01/25 15:32:59;;;;;;;29.00;12.65;;;-0.60;99.90;;;;;;15170342;23;20022;-36
2023/01/25 15:39:01;;;;;;;28.52;12.98;;;-0.60;99.90;;;;;;15163829;23;20022;-37
2023/01/25 15:45:04;;;;;;;30.42;13.82;;;-0.70;99.90;;;;;;15200642;23;20553;-37
2023/01/25 15:51:09;;;;;;;32.38;13.25;;;-0.70;99.90;;;;;;15201295;23;20452;-36
2023/01/25 15:57:33;;;;;;;30.30;13.07;;;-0.70;99.90;;;;;;15202884;23;20030;-36
2023/01/25 16:03:35;;;;;;;34.42;13.00;;;-0.80;99.90;;;;;;15192698;23;20110;-36
2023/01/25 16:09:37;;;;;;;32.53;13.27;;;-0.70;99.90;;;;;;15202993;23;20149;-36
2023/01/25 16:15:39;;;;;;;33.38;13.27;;;-0.80;99.90;;;;;;15194278;23;20022;-37
2023/01/25 16:21:42;;;;;;;30.15;12.05;;;-0.90;99.90;;;;;;15172069;23;20085;-37
2023/01/25 16:27:44;;;;;;;34.53;13.43;;;-0.90;99.90;;;;;;15199597;23;20022;-37
2023/01/25 16:33:46;;;;;;;38.00;14.00;;;-1.10;99.90;;;;;;15189704;23;20036;-37
2023/01/25 16:39:49;;;;;;;34.53;14.73;;;-1.20;99.90;;;;;;15189491;23;20061;-37
2023/01/25 16:45:56;;;;;;;37.38;14.35;;;-1.20;99.90;;;;;;15179978;23;20026;-37
2023/01/25 16:52:01;;;;;;;38.80;14.75;;;-1.20;99.90;;;;;;15173322;23;20069;-37
2023/01/25 16:58:03;;;;;;;42.58;15.90;;;-1.30;99.90;;;;;;15172388;23;20029;-37
2023/01/25 17:04:06;;;;;;;46.28;16.08;;;-1.30;99.90;;;;;;15170776;23;20526;-36
2023/01/25 17:10:09;;;;;;;45.78;15.45;;;-1.40;99.90;;;;;;15175607;23;20061;-36
2023/01/25 17:16:12;;;;;;;49.20;17.70;;;-1.40;99.90;;;;;;15092761;23;20465;-37
2023/01/25 17:22:14;;;;;;;47.03;16.55;;;-1.30;99.90;;;;;;15153152;23;20455;-36
2023/01/25 17:28:16;;;;;;;52.22;17.50;;;-1.20;99.90;;;;;;15170605;23;20028;-36
2023/01/25 17:34:18;;;;;;;48.92;17.25;;;-1.30;99.90;;;;;;15175445;23;20145;-36
2023/01/25 17:40:21;;;;;;;54.25;18.65;;;-1.30;99.90;;;;;;15197581;23;20351;-36
2023/01/25 17:46:28;;;;;;;67.07;21.48;;;-1.30;99.90;;;;;;15178407;23;20029;-37
2023/01/25 17:52:30;;;;;;;67.45;21.65;;;-1.20;99.90;;;;;;15203211;23;20022;-36
2023/01/25 17:58:35;;;;;;;89.53;29.00;;;-1.20;99.90;;;;;;15205084;23;20459;-36
2023/01/25 18:04:38;;;;;;;77.72;28.23;;;-1.30;99.90;;;;;;15198838;23;20025;-37
2023/01/25 18:10:40;;;;;;;70.53;27.45;;;-1.40;99.90;;;;;;15203905;23;20463;-37
2023/01/25 18:16:42;;;;;;;81.82;27.92;;;-1.40;99.90;;;;;;15206383;23;20030;-36
2023/01/25 18:22:44;;;;;;;83.82;28.88;;;-1.40;99.90;;;;;;15203558;23;20474;-35
2023/01/25 18:28:46;;;;;;;89.10;28.73;;;-1.60;99.90;;;;;;15202922;23;20026;-36
2023/01/25 18:34:48;;;;;;;99.65;31.02;;;-1.50;99.90;;;;;;15154629;23;20149;-35
2023/01/25 18:40:50;;;;;;;91.70;30.42;;;-1.30;99.90;;;;;;15193562;23;20018;-36
2023/01/25 18:46:52;;;;;;;94.95;32.45;;;-1.40;99.90;;;;;;15187759;23;20036;-35
2023/01/25 18:52:54;;;;;;;97.70;33.60;;;-1.50;99.90;;;;;;15174658;23;20018;-35
2023/01/25 18:58:57;;;;;;;79.72;28.23;;;-1.40;99.90;;;;;;15147192;23;20026;-35
2023/01/25 19:04:59;;;;;;;101.70;32.75;;;-1.60;99.90;;;;;;15173309;23;20061;-36
2023/01/25 19:11:07;;;;;;;93.50;32.05;;;-1.50;99.90;;;;;;15173914;23;20107;-35
2023/01/25 19:17:09;;;;;;;96.72;33.72;;;-1.60;99.90;;;;;;15177218;23;20100;-36
2023/01/25 19:23:11;;;;;;;90.10;32.63;;;-1.70;99.90;;;;;;15174033;23;20049;-36
2023/01/25 19:29:14;;;;;;;96.75;34.47;;;-1.80;99.90;;;;;;15178688;23;20029;-35
2023/01/25 19:35:16;;;;;;;94.65;31.67;;;-1.60;99.90;;;;;;15175822;23;20022;-36
2023/01/25 19:41:23;;;;;;;98.90;34.72;;;-1.60;99.90;;;;;;15193661;23;20026;-37
2023/01/25 19:47:25;;;;;;;92.10;34.00;;;-1.50;99.90;;;;;;15198977;23;20025;-36
2023/01/25 19:53:28;;;;;;;92.90;33.33;;;-1.50;99.90;;;;;;15177464;23;20068;-36
2023/01/25 19:59:30;;;;;;;87.85;31.60;;;-1.50;99.90;;;;;;15201380;23;20025;-36
2023/01/25 20:05:32;;;;;;;82.03;30.00;;;-1.50;99.90;;;;;;15201487;23;20045;-36
2023/01/25 20:11:34;;;;;;;98.03;35.33;;;-1.50;99.90;;;;;;15202306;23;20384;-36
2023/01/25 20:17:36;;;;;;;89.47;33.05;;;-1.60;99.90;;;;;;15199012;23;20022;-37
2023/01/25 20:23:42;;;;;;;97.72;35.30;;;-1.50;99.90;;;;;;15202679;23;20032;-37
2023/01/25 20:29:45;;;;;;;77.47;29.45;;;-1.50;99.90;;;;;;15201953;23;20037;-37
2023/01/25 20:35:48;;;;;;;87.68;32.80;;;-1.50;99.90;;;;;;15198689;23;20032;-37
2023/01/25 20:41:52;;;;;;;78.90;30.70;;;-1.50;99.90;;;;;;15189976;23;20029;-36
2023/01/25 20:47:54;;;;;;;105.27;37.50;;;-1.50;99.90;;;;;;15157967;23;20124;-36
2023/01/25 20:53:56;;;;;;;88.28;32.28;;;-1.60;99.90;;;;;;15172558;23;20062;-36
2023/01/25 20:59:58;;;;;;;75.88;31.63;;;-1.50;99.90;;;;;;15173682;23;20029;-37
2023/01/25 21:06:00;;;;;;;79.18;30.88;;;-1.60;99.90;;;;;;15140777;23;20224;-36
2023/01/25 21:12:02;;;;;;;80.50;28.90;;;-1.60;99.90;;;;;;15178883;23;20032;-37
2023/01/25 21:18:04;;;;;;;79.10;30.70;;;-1.70;99.90;;;;;;15145223;23;20022;-37
2023/01/25 21:24:07;;;;;;;76.30;32.08;;;-1.80;99.90;;;;;;15175750;23;20080;-37
2023/01/25 21:30:10;;;;;;;73.82;30.15;;;-1.80;99.90;;;;;;15171887;23;20025;-37
2023/01/25 21:36:14;;;;;;;69.05;29.25;;;-1.80;99.90;;;;;;15176959;23;20026;-36
2023/01/25 21:42:16;;;;;;;73.85;30.42;;;-1.70;99.90;;;;;;15203404;23;20133;-37
2023/01/25 21:51:34;;;;;;;70.88;28.20;;;-1.80;99.90;;;;;;15195998;23;20100;-37
2023/01/25 21:54:39;;;;;;;72.25;30.33;;;-1.80;99.90;;;;;;15199233;23;20709;-37
2023/01/25 22:00:41;;;;;;;76.63;30.80;;;-1.80;99.90;;;;;;15202829;23;20443;-37
2023/01/25 22:06:44;;;;;;;74.25;30.35;;;-1.80;99.90;;;;;;15205327;23;20033;-37
2023/01/25 22:12:49;;;;;;;83.57;33.50;;;-1.80;99.90;;;;;;15175213;23;20030;-36
2023/01/25 22:18:51;;;;;;;91.78;33.20;;;-1.90;99.90;;;;;;15205411;23;20821;-35
2023/01/25 22:24:55;;;;;;;87.88;33.28;;;-1.90;99.90;;;;;;15200960;23;20097;-37
2023/01/25 22:30:57;;;;;;;72.20;27.65;;;-1.90;99.90;;;;;;15201818;23;20026;-37
2023/01/25 22:36:59;;;;;;;89.28;33.65;;;-1.90;99.90;;;;;;15200483;23;20093;-36
2023/01/25 22:43:01;;;;;;;76.47;29.75;;;-1.80;99.90;;;;;;15188193;23;20058;-37
2023/01/25 22:49:03;;;;;;;89.57;34.55;;;-1.80;99.90;;;;;;15177145;23;20474;-37
2023/01/25 22:55:05;;;;;;;101.43;36.03;;;-1.60;99.90;;;;;;15178249;23;20026;-37
2023/01/25 23:01:09;;;;;;;102.80;36.42;;;-1.60;99.90;;;;;;15146968;23;20026;-36
2023/01/25 23:07:11;;;;;;;93.78;34.47;;;-1.80;99.90;;;;;;15178480;23;20103;-36
2023/01/25 23:13:13;;;;;;;84.95;34.13;;;-1.90;99.90;;;;;;15172160;23;20028;-37
2023/01/25 23:19:15;;;;;;;92.60;33.75;;;-1.90;99.90;;;;;;15177905;23;20482;-36
2023/01/25 23:25:17;;;;;;;90.43;33.47;;;-1.90;99.90;;;;;;15174165;23;20050;-36
2023/01/25 23:31:21;;;;;;;92.28;34.88;;;-1.90;99.90;;;;;;15175253;23;20026;-36
2023/01/25 23:37:23;;;;;;;90.25;34.20;;;-1.90;99.90;;;;;;15179234;23;20021;-36
2023/01/25 23:43:25;;;;;;;90.15;33.67;;;-2.00;99.90;;;;;;15203644;23;20029;-37
2023/01/25 23:49:27;;;;;;;85.95;33.92;;;-1.90;99.90;;;;;;15203884;23;20086;-36
2023/01/25 23:55:29;;;;;;;90.97;34.42;;;-1.90;99.90;;;;;;15174334;23;20096;-36
